METAR Data
IDs: Format: Raw Decoded Include TAF

Data at: 2059 UTC 13 Aug 2020

KTYL 132055Z AUTO 03008KT 10SM CLR 34/01 A3021 RMK AO2
KTYL 132035Z AUTO 24006KT 10SM CLR 34/01 A3022 RMK AO2
KTYL 132015Z AUTO 32009KT 300V020 10SM CLR 34/01 A3023 RMK AO2
KTYL 131955Z AUTO 02008KT 350V080 10SM CLR 33/02 A3024 RMK AO2
KTYL 131935Z AUTO 08010KT 10SM CLR 33/02 A3024 RMK AO2
KTYL 131915Z AUTO 00000KT 10SM CLR 33/02 A3025 RMK AO2
KTYL 131855Z AUTO 36008KT 10SM CLR 33/02 A3026 RMK AO2
KTYL 131835Z AUTO 05004KT 10SM CLR 32/02 A3027 RMK AO2
KTYL 131815Z AUTO 08004KT 10SM CLR 32/01 A3027 RMK AO2
KTYL 131755Z AUTO 36005KT 10SM CLR 32/00 A3028 RMK AO2
KTYL 131735Z AUTO 35008KT 310V010 10SM CLR 31/01 A3028 RMK AO2
KTYL 131715Z AUTO 01005KT 10SM CLR 30/02 A3029 RMK AO2
KTYL 131655Z AUTO 01009KT 10SM CLR 30/01 A3029 RMK AO2
KTYL 131635Z AUTO 02005KT 10SM CLR 29/04 A3029 RMK AO2
KTYL 131615Z AUTO 35008KT 10SM 29/03 A3029 RMK AO2
KTYL 131555Z AUTO 35004KT 10SM CLR 29/05 A3028 RMK AO2
KTYL 131535Z AUTO 30005KT 10SM CLR 28/06 A3028 RMK AO2
KTYL 131515Z AUTO 29006KT 10SM CLR 27/06 A3028 RMK AO2
KTYL 131455Z AUTO 28006KT 10SM CLR 25/08 A3028 RMK AO2
KTYL 131435Z AUTO 00000KT 10SM CLR 24/08 A3028 RMK AO2
KTYL 131415Z AUTO 00000KT 10SM CLR 22/08 A3027 RMK AO2
KTYL 131355Z AUTO 00000KT 10SM CLR 20/08 A3027 RMK AO2
KTYL 131335Z AUTO 00000KT 10SM CLR 19/08 A3027 RMK AO2
KTYL 131315Z AUTO 00000KT 10SM CLR 16/08 A3026 RMK AO2
KTYL 131255Z AUTO 00000KT 10SM CLR 15/08 A3026 RMK AO2
KTYL 131235Z AUTO 00000KT 10SM CLR 15/08 A3025 RMK AO2
KTYL 131215Z AUTO 00000KT 10SM CLR 15/08 A3025 RMK AO2
KTYL 131155Z AUTO 00000KT 10SM CLR 15/08 A3024 RMK AO2
KTYL 131135Z AUTO 00000KT 10SM CLR 17/08 A3024 RMK AO2
KTYL 131115Z AUTO 00000KT 10SM CLR 17/08 A3024 RMK AO2
KTYL 131055Z AUTO 19003KT 10SM CLR 17/08 A3024 RMK AO2
KTYL 131035Z AUTO 18004KT 10SM CLR 17/08 A3024 RMK AO2
KTYL 131015Z AUTO 22003KT 10SM CLR 17/08 A3024 RMK AO2
KTYL 130955Z AUTO 00000KT 10SM CLR 18/08 A3024 RMK AO2
KTYL 130935Z AUTO 00000KT 10SM CLR 19/08 A3024 RMK AO2
KTYL 130915Z AUTO 00000KT 10SM CLR 20/09 A3024 RMK AO2
KTYL 130855Z AUTO 18005KT 10SM CLR 20/08 A3024 RMK AO2
KTYL 130835Z AUTO 14004KT 10SM CLR 19/08 A3024 RMK AO2
KTYL 130815Z AUTO 16005KT 10SM CLR 21/09 A3024 RMK AO2
KTYL 130755Z AUTO 20008KT 10SM CLR 21/08 A3024 RMK AO2
KTYL 130735Z AUTO 21010KT 10SM CLR 22/08 A3024 RMK AO2
KTYL 130715Z AUTO 20011KT 10SM CLR 23/08 A3024 RMK AO2
KTYL 130655Z AUTO 17007KT 10SM FEW120 23/08 A3024 RMK AO2
KTYL 130635Z AUTO 19006KT 10SM SCT120 24/08 A3023 RMK AO2
KTYL 130615Z AUTO 17006KT 10SM CLR 24/08 A3023 RMK AO2
KTYL 130555Z AUTO 18008KT 10SM CLR 24/08 A3024 RMK AO2
KTYL 130535Z AUTO 15006KT 10SM CLR 24/08 A3024 RMK AO2
KTYL 130515Z AUTO 21009KT 10SM CLR 24/08 A3024 RMK AO2
KTYL 130455Z AUTO 19006KT 10SM CLR 23/08 A3025 RMK AO2
KTYL 130435Z AUTO 21003KT 10SM CLR 23/09 A3025 RMK AO2
KTYL 130415Z AUTO 21008KT 10SM 24/09 A3025 RMK AO2
KTYL 130355Z AUTO 19008KT 10SM CLR 24/09 A3024 RMK AO2 LTG DSNT SW
KTYL 130335Z AUTO 18007KT 10SM 24/08 A3024 RMK AO2 LTG DSNT SW
KTYL 130315Z AUTO 17011KT 10SM CLR 24/08 A3023 RMK AO2
KTYL 130255Z AUTO 18004KT 10SM 24/08 A3023 RMK AO2
KTYL 130235Z AUTO 10SM 25/08 A3023 RMK AO2 LTG DSNT SE-SW
KTYL 130215Z AUTO 15007KT 10SM 26/08 A3023 RMK AO2 LTG DSNT SE
KTYL 130155Z AUTO 11005KT 10SM 26/08 A3023 RMK AO2 LTG DSNT SE
KTYL 130135Z AUTO 08005KT 10SM 27/08 A3023 RMK AO2
KTYL 130115Z AUTO 08006KT 10SM 28/08 A3022 RMK AO2 LTG DSNT NE AND S
KTYL 130055Z AUTO 08006KT 10SM 28/08 A3021 RMK AO2 LTG DSNT N AND NE AND S
KTYL 130035Z AUTO 12010KT 10SM 28/08 A3021 RMK AO2 LTG DSNT N-SE
KTYL 130015Z AUTO 12014KT 10SM VCTS 28/09 A3020 RMK AO2 LTG DSNT SE AND NW
KTYL 122355Z AUTO 11013KT 10SM 29/08 A3020 RMK AO2 LTG DSNT NE AND SE
KTYL 122335Z AUTO 12009KT 10SM SCT100 BKN120 29/08 A3021 RMK AO2
KTYL 122315Z AUTO 12004KT 10SM 30/07 A3020 RMK AO2
KTYL 122255Z AUTO 30009KT 10SM 32/07 A3019 RMK AO2 LTG DSNT E-S
KTYL 122235Z AUTO 26003KT 10SM 31/06 A3019 RMK AO2 LTG DSNT ALQDS
KTYL 122215Z AUTO 29008KT 10SM CLR 32/06 A3020 RMK AO2
KTYL 122155Z AUTO 23008KT 10SM FEW120 32/06 A3020 RMK AO2
KTYL 122135Z AUTO 30008KT 10SM CLR 32/06 A3020 RMK AO2 LTG DSNT E AND SW
KTYL 122115Z AUTO 31003KT 10SM CLR 33/06 A3020 RMK AO2 LTG DSNT E AND SE
KTYL 122055Z AUTO 33005KT 10SM 32/07 A3021 RMK AO2 LTG DSNT E
KTYL 122035Z AUTO 08003KT 10SM SCT095 31/07 A3022 RMK AO2 LTG DSNT E AND SE
KTYL 122015Z AUTO 09003KT 10SM CLR 32/07 A3022 RMK AO2
KTYL 121955Z AUTO 30008KT 10SM CLR 31/07 A3023 RMK AO2
KTYL 121935Z AUTO 05010G14KT 10SM CLR 32/07 A3024 RMK AO2
KTYL 121915Z AUTO 03004KT 10SM CLR 31/07 A3025 RMK AO2
KTYL 121855Z AUTO 25006KT 10SM CLR 31/07 A3026 RMK AO2
KTYL 121835Z AUTO 07007KT 10SM FEW085 30/07 A3027 RMK AO2
KTYL 121815Z AUTO 00000KT 10SM CLR 30/07 A3027 RMK AO2
KTYL 121755Z AUTO 06008KT 040V100 10SM CLR 30/07 A3028 RMK AO2
KTYL 121715Z AUTO 04004KT 10SM 29/08 A3028 RMK AO2
KTYL 121655Z AUTO 30004KT 10SM 29/08 A3028 RMK AO2
KTYL 121635Z AUTO 34006KT 10SM 28/08 A3028 RMK AO2
KTYL 121615Z AUTO 05004KT 10SM 27/08 A3028 RMK AO2
KTYL 121555Z AUTO 09004KT 10SM 27/08 A3028 RMK AO2
KTYL 121535Z AUTO 00000KT 10SM 26/08 A3028 RMK AO2
KTYL 121515Z AUTO 00000KT 10SM 25/08 A3028 RMK AO2
KTYL 121455Z AUTO 00000KT 10SM 23/07 A3028 RMK AO2
KTYL 121435Z AUTO 10003KT 10SM CLR 22/07 A3028 RMK AO2
KTYL 121415Z AUTO 15003KT 10SM CLR 21/06 A3028 RMK AO2
KTYL 121355Z AUTO 00000KT 10SM CLR 19/06 A3027 RMK AO2
KTYL 121335Z AUTO 00000KT 10SM CLR 18/05 A3027 RMK AO2
KTYL 121315Z AUTO 20006KT 10SM CLR 16/05 A3027 RMK AO2
KTYL 121255Z AUTO 17004KT 10SM CLR 15/05 A3026 RMK AO2
KTYL 121235Z AUTO 22003KT 10SM CLR 16/05 A3025 RMK AO2
KTYL 121215Z AUTO 23003KT 10SM CLR 17/05 A3025 RMK AO2
KTYL 121155Z AUTO 21003KT 10SM 18/05 A3025 RMK AO2
KTYL 121135Z AUTO 20007KT 10SM 18/05 A3025 RMK AO2
KTYL 121115Z AUTO 20008KT 10SM 18/05 A3024 RMK AO2
KTYL 121055Z AUTO 21009KT 10SM 18/05 A3024 RMK AO2
KTYL 121035Z AUTO 17005KT 10SM SCT120 19/05 A3024 RMK AO2
KTYL 121015Z AUTO 19009KT 10SM CLR 19/04 A3024 RMK AO2
KTYL 120955Z AUTO 17004KT 10SM 18/04 A3025 RMK AO2
KTYL 120935Z AUTO 18003KT 10SM 19/04 A3024 RMK AO2
KTYL 120915Z AUTO 14004KT 10SM 19/05 A3024 RMK AO2